sensor_id;sensor_type;location;lat;lon;timestamp;P1;durP1;ratioP1;P2;durP2;ratioP2
35114;SDS011;21292;52.416;13.046;2023-03-23T00:02:08;4.90;;;2.40;;
35114;SDS011;21292;52.416;13.046;2023-03-23T00:04:35;1.85;;;1.70;;
35114;SDS011;21292;52.416;13.046;2023-03-23T00:07:03;2.03;;;1.55;;
35114;SDS011;21292;52.416;13.046;2023-03-23T00:09:30;13.93;;;2.22;;
35114;SDS011;21292;52.416;13.046;2023-03-23T00:12:01;5.07;;;2.20;;
35114;SDS011;21292;52.416;13.046;2023-03-23T00:14:31;5.05;;;2.10;;
35114;SDS011;21292;52.416;13.046;2023-03-23T00:17:06;2.33;;;1.92;;
35114;SDS011;21292;52.416;13.046;2023-03-23T00:19:36;1.60;;;1.50;;
35114;SDS011;21292;52.416;13.046;2023-03-23T00:22:11;6.75;;;2.45;;
35114;SDS011;21292;52.416;13.046;2023-03-23T00:24:39;5.45;;;1.88;;
35114;SDS011;21292;52.416;13.046;2023-03-23T00:27:11;2.60;;;2.10;;
35114;SDS011;21292;52.416;13.046;2023-03-23T00:29:40;6.78;;;1.85;;
35114;SDS011;21292;52.416;13.046;2023-03-23T00:32:08;4.10;;;2.05;;
35114;SDS011;21292;52.416;13.046;2023-03-23T00:34:42;2.50;;;1.83;;
35114;SDS011;21292;52.416;13.046;2023-03-23T00:37:11;4.85;;;2.00;;
35114;SDS011;21292;52.416;13.046;2023-03-23T00:39:42;4.25;;;2.08;;
35114;SDS011;21292;52.416;13.046;2023-03-23T00:42:13;4.90;;;2.00;;
35114;SDS011;21292;52.416;13.046;2023-03-23T00:44:40;7.88;;;2.28;;
35114;SDS011;21292;52.416;13.046;2023-03-23T00:47:09;3.85;;;2.30;;
35114;SDS011;21292;52.416;13.046;2023-03-23T00:49:36;3.38;;;2.30;;
35114;SDS011;21292;52.416;13.046;2023-03-23T00:52:04;2.45;;;2.00;;
35114;SDS011;21292;52.416;13.046;2023-03-23T00:54:32;6.35;;;2.40;;
35114;SDS011;21292;52.416;13.046;2023-03-23T00:57:00;6.05;;;2.33;;
35114;SDS011;21292;52.416;13.046;2023-03-23T00:59:31;5.75;;;2.15;;
35114;SDS011;21292;52.416;13.046;2023-03-23T01:01:59;3.70;;;2.17;;
35114;SDS011;21292;52.416;13.046;2023-03-23T01:04:26;2.55;;;1.90;;
35114;SDS011;21292;52.416;13.046;2023-03-23T01:06:57;3.78;;;2.17;;
35114;SDS011;21292;52.416;13.046;2023-03-23T01:09:26;6.63;;;2.50;;
35114;SDS011;21292;52.416;13.046;2023-03-23T01:11:53;3.30;;;2.08;;
35114;SDS011;21292;52.416;13.046;2023-03-23T01:14:21;2.63;;;2.38;;
35114;SDS011;21292;52.416;13.046;2023-03-23T01:16:49;5.63;;;2.28;;
35114;SDS011;21292;52.416;13.046;2023-03-23T01:19:16;5.47;;;2.42;;
35114;SDS011;21292;52.416;13.046;2023-03-23T01:21:43;2.80;;;2.40;;
35114;SDS011;21292;52.416;13.046;2023-03-23T01:24:10;5.03;;;2.30;;
35114;SDS011;21292;52.416;13.046;2023-03-23T01:26:38;5.00;;;2.40;;
35114;SDS011;21292;52.416;13.046;2023-03-23T01:29:05;4.72;;;2.53;;
35114;SDS011;21292;52.416;13.046;2023-03-23T01:31:33;4.50;;;2.60;;
35114;SDS011;21292;52.416;13.046;2023-03-23T01:34:02;5.30;;;2.65;;
35114;SDS011;21292;52.416;13.046;2023-03-23T01:36:29;3.95;;;2.10;;
35114;SDS011;21292;52.416;13.046;2023-03-23T01:38:58;4.22;;;2.88;;
35114;SDS011;21292;52.416;13.046;2023-03-23T01:41:27;4.90;;;2.75;;
35114;SDS011;21292;52.416;13.046;2023-03-23T01:43:57;3.13;;;2.65;;
35114;SDS011;21292;52.416;13.046;2023-03-23T01:46:27;2.78;;;2.28;;
35114;SDS011;21292;52.416;13.046;2023-03-23T01:48:54;3.03;;;2.47;;
35114;SDS011;21292;52.416;13.046;2023-03-23T01:51:24;3.75;;;2.60;;
35114;SDS011;21292;52.416;13.046;2023-03-23T01:53:57;3.85;;;2.65;;
35114;SDS011;21292;52.416;13.046;2023-03-23T01:56:27;7.00;;;2.30;;
35114;SDS011;21292;52.416;13.046;2023-03-23T01:58:58;4.43;;;2.53;;
35114;SDS011;21292;52.416;13.046;2023-03-23T02:01:25;5.30;;;2.58;;
35114;SDS011;21292;52.416;13.046;2023-03-23T02:03:54;5.22;;;2.80;;
35114;SDS011;21292;52.416;13.046;2023-03-23T02:06:22;4.13;;;2.20;;
35114;SDS011;21292;52.416;13.046;2023-03-23T02:08:51;4.47;;;1.95;;
35114;SDS011;21292;52.416;13.046;2023-03-23T02:11:19;4.47;;;2.72;;
35114;SDS011;21292;52.416;13.046;2023-03-23T02:13:48;3.58;;;2.55;;
35114;SDS011;21292;52.416;13.046;2023-03-23T02:16:19;5.82;;;2.50;;
35114;SDS011;21292;52.416;13.046;2023-03-23T02:18:53;6.75;;;2.53;;
35114;SDS011;21292;52.416;13.046;2023-03-23T02:27:22;4.85;;;2.20;;
35114;SDS011;21292;52.416;13.046;2023-03-23T02:35:41;4.75;;;2.53;;
35114;SDS011;21292;52.416;13.046;2023-03-23T02:38:12;3.33;;;2.42;;
35114;SDS011;21292;52.416;13.046;2023-03-23T02:40:42;4.75;;;2.60;;
35114;SDS011;21292;52.416;13.046;2023-03-23T02:43:11;4.30;;;2.00;;
35114;SDS011;21292;52.416;13.046;2023-03-23T02:45:40;2.53;;;2.20;;
35114;SDS011;21292;52.416;13.046;2023-03-23T02:48:09;5.43;;;2.20;;
35114;SDS011;21292;52.416;13.046;2023-03-23T02:50:38;6.00;;;2.42;;
35114;SDS011;21292;52.416;13.046;2023-03-23T02:53:07;4.45;;;2.70;;
35114;SDS011;21292;52.416;13.046;2023-03-23T02:55:37;3.83;;;2.25;;
35114;SDS011;21292;52.416;13.046;2023-03-23T02:58:07;2.55;;;1.85;;
35114;SDS011;21292;52.416;13.046;2023-03-23T03:00:36;3.33;;;1.92;;
35114;SDS011;21292;52.416;13.046;2023-03-23T03:03:05;4.10;;;2.05;;
35114;SDS011;21292;52.416;13.046;2023-03-23T03:05:37;2.95;;;2.08;;
35114;SDS011;21292;52.416;13.046;2023-03-23T03:10:46;3.55;;;2.05;;
35114;SDS011;21292;52.416;13.046;2023-03-23T03:13:21;3.08;;;1.73;;
35114;SDS011;21292;52.416;13.046;2023-03-23T03:15:53;4.63;;;2.13;;
35114;SDS011;21292;52.416;13.046;2023-03-23T03:18:24;3.08;;;1.80;;
35114;SDS011;21292;52.416;13.046;2023-03-23T03:20:56;4.00;;;1.98;;
35114;SDS011;21292;52.416;13.046;2023-03-23T03:23:25;3.50;;;1.88;;
35114;SDS011;21292;52.416;13.046;2023-03-23T03:25:54;4.70;;;1.58;;
35114;SDS011;21292;52.416;13.046;2023-03-23T03:28:23;2.55;;;1.65;;
35114;SDS011;21292;52.416;13.046;2023-03-23T03:30:53;3.83;;;1.80;;
35114;SDS011;21292;52.416;13.046;2023-03-23T03:33:21;3.30;;;2.08;;
35114;SDS011;21292;52.416;13.046;2023-03-23T03:35:51;1.92;;;1.60;;
35114;SDS011;21292;52.416;13.046;2023-03-23T03:38:21;2.97;;;1.95;;
35114;SDS011;21292;52.416;13.046;2023-03-23T03:40:49;5.05;;;2.00;;
35114;SDS011;21292;52.416;13.046;2023-03-23T03:43:16;4.75;;;1.80;;
35114;SDS011;21292;52.416;13.046;2023-03-23T03:45:43;5.95;;;1.88;;
35114;SDS011;21292;52.416;13.046;2023-03-23T03:48:12;1.95;;;1.50;;
35114;SDS011;21292;52.416;13.046;2023-03-23T03:50:39;3.40;;;1.88;;
35114;SDS011;21292;52.416;13.046;2023-03-23T03:53:06;1.73;;;1.58;;
35114;SDS011;21292;52.416;13.046;2023-03-23T03:55:34;3.00;;;1.65;;
35114;SDS011;21292;52.416;13.046;2023-03-23T03:58:04;2.25;;;1.65;;
35114;SDS011;21292;52.416;13.046;2023-03-23T04:00:32;3.67;;;1.90;;
35114;SDS011;21292;52.416;13.046;2023-03-23T04:02:59;4.50;;;1.92;;
35114;SDS011;21292;52.416;13.046;2023-03-23T04:05:26;4.25;;;1.85;;
35114;SDS011;21292;52.416;13.046;2023-03-23T04:07:55;3.05;;;1.70;;
35114;SDS011;21292;52.416;13.046;2023-03-23T04:10:27;3.67;;;1.55;;
35114;SDS011;21292;52.416;13.046;2023-03-23T04:12:56;2.85;;;1.75;;
35114;SDS011;21292;52.416;13.046;2023-03-23T04:15:23;3.17;;;1.65;;
35114;SDS011;21292;52.416;13.046;2023-03-23T04:17:50;4.43;;;1.80;;
35114;SDS011;21292;52.416;13.046;2023-03-23T04:20:18;3.42;;;1.75;;
35114;SDS011;21292;52.416;13.046;2023-03-23T04:22:47;3.78;;;1.88;;
35114;SDS011;21292;52.416;13.046;2023-03-23T04:25:16;3.38;;;1.58;;
35114;SDS011;21292;52.416;13.046;2023-03-23T04:27:47;8.25;;;1.63;;
35114;SDS011;21292;52.416;13.046;2023-03-23T04:30:19;5.30;;;1.80;;
35114;SDS011;21292;52.416;13.046;2023-03-23T04:32:47;4.15;;;1.90;;
35114;SDS011;21292;52.416;13.046;2023-03-23T04:35:16;4.25;;;1.50;;
35114;SDS011;21292;52.416;13.046;2023-03-23T04:37:43;4.60;;;2.15;;
35114;SDS011;21292;52.416;13.046;2023-03-23T04:40:11;4.78;;;1.58;;
35114;SDS011;21292;52.416;13.046;2023-03-23T04:42:40;4.80;;;1.92;;
35114;SDS011;21292;52.416;13.046;2023-03-23T04:45:11;1.60;;;1.50;;
35114;SDS011;21292;52.416;13.046;2023-03-23T04:47:42;4.90;;;1.60;;
35114;SDS011;21292;52.416;13.046;2023-03-23T04:50:20;3.03;;;1.70;;
35114;SDS011;21292;52.416;13.046;2023-03-23T04:52:49;4.10;;;2.10;;
35114;SDS011;21292;52.416;13.046;2023-03-23T04:55:20;2.97;;;1.77;;
35114;SDS011;21292;52.416;13.046;2023-03-23T04:57:47;4.00;;;1.65;;
35114;SDS011;21292;52.416;13.046;2023-03-23T05:00:14;2.72;;;1.60;;
35114;SDS011;21292;52.416;13.046;2023-03-23T05:02:45;1.65;;;1.50;;
35114;SDS011;21292;52.416;13.046;2023-03-23T05:05:17;4.32;;;1.75;;
35114;SDS011;21292;52.416;13.046;2023-03-23T05:07:45;5.28;;;1.83;;
35114;SDS011;21292;52.416;13.046;2023-03-23T05:10:12;2.95;;;1.88;;
35114;SDS011;21292;52.416;13.046;2023-03-23T05:12:41;3.83;;;1.70;;
35114;SDS011;21292;52.416;13.046;2023-03-23T05:15:09;4.78;;;2.17;;
35114;SDS011;21292;52.416;13.046;2023-03-23T05:17:37;9.13;;;2.13;;
35114;SDS011;21292;52.416;13.046;2023-03-23T05:20:07;4.00;;;1.80;;
35114;SDS011;21292;52.416;13.046;2023-03-23T05:22:37;3.40;;;1.92;;
35114;SDS011;21292;52.416;13.046;2023-03-23T05:25:05;4.80;;;1.90;;
35114;SDS011;21292;52.416;13.046;2023-03-23T05:27:34;2.83;;;2.00;;
35114;SDS011;21292;52.416;13.046;2023-03-23T05:30:02;5.00;;;2.20;;
35114;SDS011;21292;52.416;13.046;2023-03-23T05:32:30;3.20;;;1.98;;
35114;SDS011;21292;52.416;13.046;2023-03-23T05:34:57;5.88;;;2.28;;
35114;SDS011;21292;52.416;13.046;2023-03-23T05:37:27;2.95;;;2.20;;
35114;SDS011;21292;52.416;13.046;2023-03-23T05:39:57;7.32;;;2.83;;
35114;SDS011;21292;52.416;13.046;2023-03-23T05:42:30;3.65;;;2.15;;
35114;SDS011;21292;52.416;13.046;2023-03-23T05:44:58;9.07;;;3.10;;
35114;SDS011;21292;52.416;13.046;2023-03-23T05:47:26;4.90;;;2.25;;
35114;SDS011;21292;52.416;13.046;2023-03-23T05:49:53;3.38;;;2.30;;
35114;SDS011;21292;52.416;13.046;2023-03-23T05:52:22;4.78;;;2.45;;
35114;SDS011;21292;52.416;13.046;2023-03-23T05:54:52;5.63;;;2.90;;
35114;SDS011;21292;52.416;13.046;2023-03-23T05:57:20;5.95;;;2.67;;
35114;SDS011;21292;52.416;13.046;2023-03-23T05:59:48;6.93;;;3.00;;
35114;SDS011;21292;52.416;13.046;2023-03-23T06:02:18;14.15;;;3.95;;
35114;SDS011;21292;52.416;13.046;2023-03-23T06:04:46;10.63;;;3.20;;
35114;SDS011;21292;52.416;13.046;2023-03-23T06:07:14;9.07;;;3.17;;
35114;SDS011;21292;52.416;13.046;2023-03-23T06:09:42;12.23;;;5.25;;
35114;SDS011;21292;52.416;13.046;2023-03-23T06:12:11;11.68;;;4.47;;
35114;SDS011;21292;52.416;13.046;2023-03-23T06:14:38;12.25;;;3.63;;
35114;SDS011;21292;52.416;13.046;2023-03-23T06:17:05;6.65;;;2.88;;
35114;SDS011;21292;52.416;13.046;2023-03-23T06:19:33;5.43;;;2.65;;
35114;SDS011;21292;52.416;13.046;2023-03-23T06:22:03;7.15;;;3.13;;
35114;SDS011;21292;52.416;13.046;2023-03-23T06:24:31;5.53;;;2.85;;
35114;SDS011;21292;52.416;13.046;2023-03-23T06:26:59;8.10;;;3.08;;
35114;SDS011;21292;52.416;13.046;2023-03-23T06:29:28;8.48;;;4.53;;
35114;SDS011;21292;52.416;13.046;2023-03-23T06:31:55;7.95;;;3.20;;
35114;SDS011;21292;52.416;13.046;2023-03-23T06:34:24;3.40;;;2.70;;
35114;SDS011;21292;52.416;13.046;2023-03-23T06:36:51;4.35;;;2.08;;
35114;SDS011;21292;52.416;13.046;2023-03-23T06:39:19;5.60;;;2.80;;
35114;SDS011;21292;52.416;13.046;2023-03-23T06:41:47;7.45;;;2.53;;
35114;SDS011;21292;52.416;13.046;2023-03-23T06:44:14;4.88;;;2.53;;
35114;SDS011;21292;52.416;13.046;2023-03-23T06:46:42;4.15;;;2.97;;
35114;SDS011;21292;52.416;13.046;2023-03-23T06:49:10;6.78;;;2.60;;
35114;SDS011;21292;52.416;13.046;2023-03-23T06:51:37;3.90;;;2.50;;
35114;SDS011;21292;52.416;13.046;2023-03-23T06:54:04;5.07;;;2.42;;
35114;SDS011;21292;52.416;13.046;2023-03-23T06:56:32;6.85;;;3.30;;
35114;SDS011;21292;52.416;13.046;2023-03-23T06:59:00;4.18;;;2.75;;
35114;SDS011;21292;52.416;13.046;2023-03-23T07:01:27;7.72;;;3.00;;
35114;SDS011;21292;52.416;13.046;2023-03-23T07:03:57;5.88;;;3.00;;
35114;SDS011;21292;52.416;13.046;2023-03-23T07:06:25;4.47;;;2.45;;
35114;SDS011;21292;52.416;13.046;2023-03-23T07:08:52;4.40;;;2.65;;
35114;SDS011;21292;52.416;13.046;2023-03-23T07:11:20;5.82;;;2.83;;
35114;SDS011;21292;52.416;13.046;2023-03-23T07:13:47;6.68;;;2.85;;
35114;SDS011;21292;52.416;13.046;2023-03-23T07:16:15;5.32;;;2.83;;
35114;SDS011;21292;52.416;13.046;2023-03-23T07:18:43;6.78;;;3.22;;
35114;SDS011;21292;52.416;13.046;2023-03-23T07:21:14;4.65;;;2.80;;
35114;SDS011;21292;52.416;13.046;2023-03-23T07:23:42;4.95;;;2.70;;
35114;SDS011;21292;52.416;13.046;2023-03-23T07:26:11;6.15;;;2.90;;
35114;SDS011;21292;52.416;13.046;2023-03-23T07:28:39;7.30;;;3.15;;
35114;SDS011;21292;52.416;13.046;2023-03-23T07:31:07;5.35;;;3.35;;
35114;SDS011;21292;52.416;13.046;2023-03-23T07:33:34;6.60;;;3.10;;
35114;SDS011;21292;52.416;13.046;2023-03-23T07:36:04;5.55;;;3.40;;
35114;SDS011;21292;52.416;13.046;2023-03-23T07:38:33;5.53;;;3.15;;
35114;SDS011;21292;52.416;13.046;2023-03-23T07:41:01;5.78;;;3.33;;
35114;SDS011;21292;52.416;13.046;2023-03-23T07:43:29;5.95;;;2.97;;
35114;SDS011;21292;52.416;13.046;2023-03-23T07:45:56;5.47;;;2.90;;
35114;SDS011;21292;52.416;13.046;2023-03-23T07:48:24;7.10;;;2.83;;
35114;SDS011;21292;52.416;13.046;2023-03-23T07:50:52;5.90;;;3.40;;
35114;SDS011;21292;52.416;13.046;2023-03-23T07:53:19;8.18;;;3.28;;
35114;SDS011;21292;52.416;13.046;2023-03-23T07:55:48;4.63;;;3.03;;
35114;SDS011;21292;52.416;13.046;2023-03-23T07:58:17;4.85;;;2.95;;
35114;SDS011;21292;52.416;13.046;2023-03-23T08:00:45;4.28;;;3.00;;
35114;SDS011;21292;52.416;13.046;2023-03-23T08:03:14;3.83;;;2.80;;
35114;SDS011;21292;52.416;13.046;2023-03-23T08:05:43;5.82;;;2.72;;
35114;SDS011;21292;52.416;13.046;2023-03-23T08:08:12;4.32;;;2.75;;
35114;SDS011;21292;52.416;13.046;2023-03-23T08:10:41;5.70;;;3.00;;
35114;SDS011;21292;52.416;13.046;2023-03-23T08:13:09;6.05;;;3.15;;
35114;SDS011;21292;52.416;13.046;2023-03-23T08:15:37;9.18;;;3.13;;
35114;SDS011;21292;52.416;13.046;2023-03-23T08:18:05;4.15;;;3.08;;
35114;SDS011;21292;52.416;13.046;2023-03-23T08:20:32;5.03;;;3.30;;
35114;SDS011;21292;52.416;13.046;2023-03-23T08:22:59;4.65;;;3.08;;
35114;SDS011;21292;52.416;13.046;2023-03-23T08:25:28;7.78;;;3.33;;
35114;SDS011;21292;52.416;13.046;2023-03-23T08:27:57;4.95;;;3.28;;
35114;SDS011;21292;52.416;13.046;2023-03-23T08:30:26;4.25;;;2.90;;
35114;SDS011;21292;52.416;13.046;2023-03-23T08:32:56;5.78;;;3.17;;
35114;SDS011;21292;52.416;13.046;2023-03-23T08:35:25;4.25;;;3.08;;
35114;SDS011;21292;52.416;13.046;2023-03-23T08:37:53;6.93;;;2.85;;
35114;SDS011;21292;52.416;13.046;2023-03-23T08:40:22;5.22;;;3.13;;
35114;SDS011;21292;52.416;13.046;2023-03-23T08:42:51;4.25;;;2.35;;
35114;SDS011;21292;52.416;13.046;2023-03-23T08:45:19;6.05;;;2.95;;
35114;SDS011;21292;52.416;13.046;2023-03-23T08:47:49;4.28;;;2.75;;
35114;SDS011;21292;52.416;13.046;2023-03-23T08:50:20;5.25;;;2.50;;
35114;SDS011;21292;52.416;13.046;2023-03-23T08:52:49;5.80;;;2.22;;
35114;SDS011;21292;52.416;13.046;2023-03-23T08:55:16;3.33;;;2.30;;
35114;SDS011;21292;52.416;13.046;2023-03-23T08:57:45;7.13;;;2.30;;
35114;SDS011;21292;52.416;13.046;2023-03-23T09:00:13;3.20;;;2.03;;
35114;SDS011;21292;52.416;13.046;2023-03-23T09:02:47;4.25;;;2.53;;
35114;SDS011;21292;52.416;13.046;2023-03-23T09:05:16;3.53;;;2.28;;
35114;SDS011;21292;52.416;13.046;2023-03-23T09:07:45;5.80;;;2.25;;
35114;SDS011;21292;52.416;13.046;2023-03-23T09:10:14;2.50;;;2.10;;
35114;SDS011;21292;52.416;13.046;2023-03-23T09:12:41;5.55;;;2.13;;
35114;SDS011;21292;52.416;13.046;2023-03-23T09:15:10;7.15;;;2.60;;
35114;SDS011;21292;52.416;13.046;2023-03-23T09:17:43;2.72;;;1.95;;
35114;SDS011;21292;52.416;13.046;2023-03-23T09:20:14;5.22;;;2.28;;
35114;SDS011;21292;52.416;13.046;2023-03-23T09:22:46;6.32;;;2.30;;
35114;SDS011;21292;52.416;13.046;2023-03-23T09:25:15;4.63;;;2.10;;
35114;SDS011;21292;52.416;13.046;2023-03-23T09:27:45;2.40;;;2.20;;
35114;SDS011;21292;52.416;13.046;2023-03-23T09:30:15;5.35;;;2.00;;
35114;SDS011;21292;52.416;13.046;2023-03-23T09:32:44;4.15;;;2.53;;
35114;SDS011;21292;52.416;13.046;2023-03-23T09:35:16;5.30;;;1.90;;
35114;SDS011;21292;52.416;13.046;2023-03-23T09:37:43;3.20;;;1.83;;
35114;SDS011;21292;52.416;13.046;2023-03-23T09:40:11;2.97;;;1.60;;
35114;SDS011;21292;52.416;13.046;2023-03-23T09:42:46;4.25;;;1.80;;
35114;SDS011;21292;52.416;13.046;2023-03-23T09:45:19;2.92;;;1.90;;
35114;SDS011;21292;52.416;13.046;2023-03-23T09:47:57;3.75;;;1.90;;
35114;SDS011;21292;52.416;13.046;2023-03-23T09:50:35;4.55;;;1.80;;
35114;SDS011;21292;52.416;13.046;2023-03-23T09:53:05;2.28;;;1.50;;
35114;SDS011;21292;52.416;13.046;2023-03-23T09:55:39;2.63;;;1.83;;
35114;SDS011;21292;52.416;13.046;2023-03-23T09:58:09;2.20;;;1.50;;
35114;SDS011;21292;52.416;13.046;2023-03-23T10:00:39;2.00;;;1.58;;
35114;SDS011;21292;52.416;13.046;2023-03-23T10:03:11;4.50;;;2.30;;
35114;SDS011;21292;52.416;13.046;2023-03-23T10:05:44;2.55;;;1.85;;
35114;SDS011;21292;52.416;13.046;2023-03-23T10:08:13;4.33;;;1.50;;
35114;SDS011;21292;52.416;13.046;2023-03-23T10:10:45;3.63;;;1.75;;
35114;SDS011;21292;52.416;13.046;2023-03-23T10:13:20;5.72;;;1.90;;
35114;SDS011;21292;52.416;13.046;2023-03-23T10:15:52;3.28;;;1.60;;
35114;SDS011;21292;52.416;13.046;2023-03-23T10:18:23;4.43;;;1.60;;
35114;SDS011;21292;52.416;13.046;2023-03-23T10:20:55;3.25;;;1.65;;
35114;SDS011;21292;52.416;13.046;2023-03-23T10:23:34;3.22;;;1.55;;
35114;SDS011;21292;52.416;13.046;2023-03-23T10:26:12;1.70;;;1.60;;
35114;SDS011;21292;52.416;13.046;2023-03-23T10:28:48;3.65;;;1.80;;
35114;SDS011;21292;52.416;13.046;2023-03-23T10:31:19;2.70;;;1.90;;
35114;SDS011;21292;52.416;13.046;2023-03-23T10:33:50;2.10;;;1.70;;
35114;SDS011;21292;52.416;13.046;2023-03-23T10:36:21;3.35;;;1.63;;
35114;SDS011;21292;52.416;13.046;2023-03-23T10:38:53;2.00;;;1.60;;
35114;SDS011;21292;52.416;13.046;2023-03-23T10:41:23;1.85;;;1.40;;
35114;SDS011;21292;52.416;13.046;2023-03-23T10:43:52;2.30;;;1.85;;
35114;SDS011;21292;52.416;13.046;2023-03-23T10:46:22;3.20;;;1.63;;
35114;SDS011;21292;52.416;13.046;2023-03-23T10:48:55;1.90;;;1.70;;
35114;SDS011;21292;52.416;13.046;2023-03-23T10:51:27;2.25;;;1.40;;
35114;SDS011;21292;52.416;13.046;2023-03-23T10:53:59;2.72;;;1.45;;
35114;SDS011;21292;52.416;13.046;2023-03-23T10:56:28;5.43;;;1.52;;
35114;SDS011;21292;52.416;13.046;2023-03-23T10:58:56;2.92;;;1.55;;
35114;SDS011;21292;52.416;13.046;2023-03-23T11:01:28;3.65;;;1.88;;
35114;SDS011;21292;52.416;13.046;2023-03-23T11:03:57;3.97;;;1.80;;
35114;SDS011;21292;52.416;13.046;2023-03-23T11:06:30;3.10;;;1.50;;
35114;SDS011;21292;52.416;13.046;2023-03-23T11:09:01;1.80;;;1.30;;
35114;SDS011;21292;52.416;13.046;2023-03-23T11:11:39;4.38;;;2.00;;
35114;SDS011;21292;52.416;13.046;2023-03-23T11:14:16;3.13;;;1.65;;
35114;SDS011;21292;52.416;13.046;2023-03-23T11:17:03;2.10;;;1.30;;
35114;SDS011;21292;52.416;13.046;2023-03-23T11:19:32;3.65;;;1.42;;
35114;SDS011;21292;52.416;13.046;2023-03-23T11:22:06;3.75;;;1.77;;
35114;SDS011;21292;52.416;13.046;2023-03-23T11:24:35;2.00;;;1.30;;
35114;SDS011;21292;52.416;13.046;2023-03-23T11:27:04;2.40;;;1.77;;
35114;SDS011;21292;52.416;13.046;2023-03-23T11:29:43;2.20;;;1.60;;
35114;SDS011;21292;52.416;13.046;2023-03-23T11:32:14;1.58;;;1.40;;
35114;SDS011;21292;52.416;13.046;2023-03-23T11:34:43;2.35;;;1.52;;
35114;SDS011;21292;52.416;13.046;2023-03-23T11:37:15;2.72;;;1.70;;
35114;SDS011;21292;52.416;13.046;2023-03-23T11:39:47;2.55;;;1.52;;
35114;SDS011;21292;52.416;13.046;2023-03-23T11:42:18;3.33;;;1.63;;
35114;SDS011;21292;52.416;13.046;2023-03-23T11:44:47;3.95;;;1.60;;
35114;SDS011;21292;52.416;13.046;2023-03-23T11:47:17;3.72;;;1.70;;
35114;SDS011;21292;52.416;13.046;2023-03-23T11:49:49;3.15;;;1.75;;
35114;SDS011;21292;52.416;13.046;2023-03-23T11:52:23;2.20;;;1.55;;
35114;SDS011;21292;52.416;13.046;2023-03-23T11:54:54;3.80;;;1.73;;
35114;SDS011;21292;52.416;13.046;2023-03-23T11:57:24;2.17;;;1.67;;
35114;SDS011;21292;52.416;13.046;2023-03-23T11:59:53;4.45;;;1.98;;
35114;SDS011;21292;52.416;13.046;2023-03-23T12:02:31;1.80;;;1.70;;
35114;SDS011;21292;52.416;13.046;2023-03-23T12:05:23;2.28;;;1.45;;
35114;SDS011;21292;52.416;13.046;2023-03-23T12:08:00;3.78;;;1.60;;
35114;SDS011;21292;52.416;13.046;2023-03-23T12:10:38;1.52;;;1.38;;
35114;SDS011;21292;52.416;13.046;2023-03-23T12:13:13;4.18;;;1.75;;
35114;SDS011;21292;52.416;13.046;2023-03-23T12:15:50;4.18;;;1.85;;
35114;SDS011;21292;52.416;13.046;2023-03-23T12:18:25;1.95;;;1.60;;
35114;SDS011;21292;52.416;13.046;2023-03-23T12:21:03;2.00;;;1.65;;
35114;SDS011;21292;52.416;13.046;2023-03-23T12:23:44;3.42;;;1.58;;
35114;SDS011;21292;52.416;13.046;2023-03-23T12:26:21;4.55;;;1.63;;
35114;SDS011;21292;52.416;13.046;2023-03-23T12:28:57;2.47;;;1.33;;
35114;SDS011;21292;52.416;13.046;2023-03-23T12:31:35;4.45;;;1.60;;
35114;SDS011;21292;52.416;13.046;2023-03-23T12:34:10;2.92;;;1.60;;
35114;SDS011;21292;52.416;13.046;2023-03-23T12:36:47;2.78;;;1.65;;
35114;SDS011;21292;52.416;13.046;2023-03-23T12:39:37;2.95;;;1.67;;
35114;SDS011;21292;52.416;13.046;2023-03-23T12:42:23;2.70;;;1.50;;
35114;SDS011;21292;52.416;13.046;2023-03-23T12:44:57;2.47;;;1.85;;
35114;SDS011;21292;52.416;13.046;2023-03-23T12:47:40;3.03;;;1.30;;
35114;SDS011;21292;52.416;13.046;2023-03-23T12:50:13;3.10;;;1.80;;
35114;SDS011;21292;52.416;13.046;2023-03-23T12:55:15;4.30;;;1.75;;
35114;SDS011;21292;52.416;13.046;2023-03-23T12:57:47;1.70;;;1.35;;
35114;SDS011;21292;52.416;13.046;2023-03-23T13:00:20;4.25;;;1.80;;
35114;SDS011;21292;52.416;13.046;2023-03-23T13:02:52;3.58;;;1.65;;
35114;SDS011;21292;52.416;13.046;2023-03-23T13:05:36;3.28;;;1.50;;
35114;SDS011;21292;52.416;13.046;2023-03-23T13:08:11;3.08;;;1.58;;
35114;SDS011;21292;52.416;13.046;2023-03-23T13:13:39;3.45;;;1.55;;
35114;SDS011;21292;52.416;13.046;2023-03-23T13:16:11;6.82;;;2.08;;
35114;SDS011;21292;52.416;13.046;2023-03-23T13:18:43;6.25;;;1.73;;
35114;SDS011;21292;52.416;13.046;2023-03-23T13:21:14;2.40;;;1.50;;
35114;SDS011;21292;52.416;13.046;2023-03-23T13:23:46;2.53;;;1.50;;
35114;SDS011;21292;52.416;13.046;2023-03-23T13:26:18;3.45;;;1.70;;
35114;SDS011;21292;52.416;13.046;2023-03-23T13:28:49;4.68;;;1.50;;
35114;SDS011;21292;52.416;13.046;2023-03-23T13:31:30;4.15;;;1.80;;
35114;SDS011;21292;52.416;13.046;2023-03-23T13:34:01;2.33;;;1.70;;
35114;SDS011;21292;52.416;13.046;2023-03-23T13:36:32;3.72;;;1.27;;
35114;SDS011;21292;52.416;13.046;2023-03-23T13:39:03;5.30;;;1.80;;
35114;SDS011;21292;52.416;13.046;2023-03-23T13:41:44;5.32;;;1.83;;
35114;SDS011;21292;52.416;13.046;2023-03-23T13:44:18;2.72;;;1.30;;
35114;SDS011;21292;52.416;13.046;2023-03-23T13:46:56;4.07;;;1.60;;
35114;SDS011;21292;52.416;13.046;2023-03-23T13:49:31;4.75;;;1.77;;
35114;SDS011;21292;52.416;13.046;2023-03-23T13:52:13;3.97;;;1.67;;
35114;SDS011;21292;52.416;13.046;2023-03-23T13:54:45;6.13;;;1.50;;
35114;SDS011;21292;52.416;13.046;2023-03-23T13:57:24;4.25;;;2.15;;
35114;SDS011;21292;52.416;13.046;2023-03-23T13:59:57;2.95;;;1.33;;
35114;SDS011;21292;52.416;13.046;2023-03-23T14:02:28;2.60;;;1.40;;
35114;SDS011;21292;52.416;13.046;2023-03-23T14:05:08;4.30;;;1.45;;
35114;SDS011;21292;52.416;13.046;2023-03-23T14:07:53;5.35;;;1.63;;
35114;SDS011;21292;52.416;13.046;2023-03-23T14:10:21;4.05;;;1.42;;
35114;SDS011;21292;52.416;13.046;2023-03-23T14:12:58;3.67;;;1.85;;
35114;SDS011;21292;52.416;13.046;2023-03-23T14:15:29;2.45;;;1.75;;
35114;SDS011;21292;52.416;13.046;2023-03-23T14:18:01;4.78;;;1.73;;
35114;SDS011;21292;52.416;13.046;2023-03-23T14:20:30;3.25;;;1.70;;
35114;SDS011;21292;52.416;13.046;2023-03-23T14:23:01;4.13;;;1.80;;
35114;SDS011;21292;52.416;13.046;2023-03-23T14:25:29;2.97;;;1.42;;
35114;SDS011;21292;52.416;13.046;2023-03-23T14:28:01;2.53;;;1.70;;
35114;SDS011;21292;52.416;13.046;2023-03-23T14:30:34;3.70;;;1.60;;
35114;SDS011;21292;52.416;13.046;2023-03-23T14:33:03;3.33;;;1.73;;
35114;SDS011;21292;52.416;13.046;2023-03-23T14:35:34;3.43;;;1.40;;
35114;SDS011;21292;52.416;13.046;2023-03-23T14:38:04;4.28;;;1.70;;
35114;SDS011;21292;52.416;13.046;2023-03-23T14:40:38;5.90;;;1.42;;
35114;SDS011;21292;52.416;13.046;2023-03-23T14:43:07;4.63;;;1.50;;
35114;SDS011;21292;52.416;13.046;2023-03-23T14:45:35;5.18;;;1.83;;
35114;SDS011;21292;52.416;13.046;2023-03-23T14:48:02;4.78;;;1.90;;
35114;SDS011;21292;52.416;13.046;2023-03-23T14:50:31;2.13;;;1.52;;
35114;SDS011;21292;52.416;13.046;2023-03-23T14:53:09;4.82;;;1.55;;
35114;SDS011;21292;52.416;13.046;2023-03-23T14:55:41;3.95;;;1.40;;
35114;SDS011;21292;52.416;13.046;2023-03-23T14:58:13;3.20;;;1.67;;
35114;SDS011;21292;52.416;13.046;2023-03-23T15:00:42;4.80;;;1.90;;
35114;SDS011;21292;52.416;13.046;2023-03-23T15:03:11;2.80;;;1.48;;
35114;SDS011;21292;52.416;13.046;2023-03-23T15:05:41;3.72;;;1.60;;
35114;SDS011;21292;52.416;13.046;2023-03-23T15:08:12;5.03;;;1.40;;
35114;SDS011;21292;52.416;13.046;2023-03-23T15:10:41;4.35;;;1.30;;
35114;SDS011;21292;52.416;13.046;2023-03-23T15:13:11;2.58;;;1.23;;